createdAt,value
2023-01-28T00:00:26.417Z,0
2023-01-28T00:01:42.706Z,0
2023-01-28T00:02:58.999Z,0
2023-01-28T00:04:14.313Z,0
2023-01-28T00:05:30.602Z,0
2023-01-28T00:06:46.913Z,0
2023-01-28T00:08:03.191Z,0
2023-01-28T00:09:19.493Z,0
2023-01-28T00:10:35.794Z,0
2023-01-28T00:11:52.072Z,0
2023-01-28T00:13:08.361Z,0
2023-01-28T00:14:24.667Z,0
2023-01-28T00:15:40.958Z,0
2023-01-28T00:16:57.242Z,0
2023-01-28T00:18:13.551Z,0
2023-01-28T00:19:29.841Z,0
2023-01-28T00:20:45.158Z,0
2023-01-28T00:22:01.438Z,0
2023-01-28T00:23:17.740Z,0
2023-01-28T00:24:34.034Z,0
2023-01-28T00:25:50.331Z,0
2023-01-28T00:27:06.608Z,0
2023-01-28T00:28:22.902Z,0
2023-01-28T00:29:39.205Z,0
2023-01-28T00:30:55.494Z,0
2023-01-28T00:32:11.787Z,0
2023-01-28T00:33:28.074Z,0
2023-01-28T00:34:44.384Z,0
2023-01-28T00:36:00.666Z,0
2023-01-28T00:37:15.980Z,0
2023-01-28T00:38:32.271Z,0
2023-01-28T00:39:48.558Z,0
2023-01-28T00:41:04.851Z,0
2023-01-28T00:42:21.158Z,0
2023-01-28T00:43:37.443Z,0
2023-01-28T00:44:53.742Z,0
2023-01-28T00:46:10.025Z,0
2023-01-28T00:47:26.334Z,0
2023-01-28T00:48:42.611Z,0
2023-01-28T00:49:58.920Z,0
2023-01-28T00:51:15.217Z,0
2023-01-28T00:52:31.494Z,0
2023-01-28T00:53:46.803Z,0
2023-01-28T00:55:03.105Z,0
2023-01-28T00:56:19.395Z,0
2023-01-28T00:57:35.681Z,0
2023-01-28T00:58:51.987Z,0
2023-01-28T01:00:08.280Z,0
2023-01-28T01:01:24.578Z,0
2023-01-28T01:02:40.856Z,0
2023-01-28T01:03:57.168Z,0
2023-01-28T01:05:13.449Z,0
2023-01-28T01:06:29.753Z,0
2023-01-28T01:07:46.034Z,0
2023-01-28T01:09:02.330Z,0
2023-01-28T01:10:17.636Z,0
2023-01-28T01:11:33.933Z,0
2023-01-28T01:12:50.236Z,0
2023-01-28T01:14:06.527Z,0
2023-01-28T01:15:22.822Z,0
2023-01-28T01:16:39.104Z,0
2023-01-28T01:17:55.401Z,0
2023-01-28T01:19:11.699Z,0
2023-01-28T01:20:27.992Z,0
2023-01-28T01:21:44.283Z,0
2023-01-28T01:23:00.566Z,0
2023-01-28T01:24:16.860Z,0
2023-01-28T01:25:33.157Z,0
2023-01-28T01:26:48.478Z,0
2023-01-28T01:28:04.760Z,0
2023-01-28T01:29:21.061Z,0
2023-01-28T01:30:37.361Z,0
2023-01-28T01:31:53.646Z,0
2023-01-28T01:33:09.944Z,0
2023-01-28T01:34:26.223Z,0
2023-01-28T01:35:42.530Z,0
2023-01-28T01:36:58.827Z,0
2023-01-28T01:38:15.115Z,0
2023-01-28T01:39:31.401Z,0
2023-01-28T01:42:03.984Z,0
2023-01-28T01:43:19.310Z,0
2023-01-28T01:44:35.594Z,0
2023-01-28T01:45:51.886Z,0
2023-01-28T01:47:08.191Z,0
2023-01-28T01:48:24.486Z,0
2023-01-28T01:49:40.767Z,0
2023-01-28T01:50:57.065Z,0
2023-01-28T01:52:13.357Z,0
2023-01-28T01:53:29.658Z,0
2023-01-28T01:54:45.940Z,0
2023-01-28T01:56:02.242Z,0
2023-01-28T01:57:18.534Z,0
2023-01-28T01:58:34.820Z,0
2023-01-28T01:59:50.127Z,0
2023-01-28T02:01:06.420Z,0
2023-01-28T02:02:22.715Z,0
2023-01-28T02:03:39.007Z,0
2023-01-28T02:04:55.305Z,0
2023-01-28T02:06:11.594Z,0
2023-01-28T02:07:27.887Z,0
2023-01-28T02:08:44.188Z,0
2023-01-28T02:10:00.481Z,0
2023-01-28T02:11:16.775Z,0
2023-01-28T02:12:33.067Z,0
2023-01-28T02:13:49.356Z,0
2023-01-28T02:15:05.663Z,0
2023-01-28T02:16:20.960Z,0
2023-01-28T02:17:37.249Z,0
2023-01-28T02:18:53.548Z,0
2023-01-28T02:20:09.851Z,0
2023-01-28T02:21:26.136Z,0
2023-01-28T02:22:42.438Z,0
2023-01-28T02:23:58.722Z,0
2023-01-28T02:25:15.025Z,0
2023-01-28T02:26:31.308Z,0
2023-01-28T02:27:47.615Z,0
2023-01-28T02:29:03.894Z,0
2023-01-28T02:30:20.195Z,0
2023-01-28T02:31:36.480Z,0
2023-01-28T02:32:51.785Z,0
2023-01-28T02:34:08.082Z,0
2023-01-28T02:35:24.388Z,0
2023-01-28T02:36:40.682Z,0
2023-01-28T02:37:56.976Z,0
2023-01-28T02:39:13.263Z,0
2023-01-28T02:40:29.557Z,0
2023-01-28T02:41:45.840Z,0
2023-01-28T02:43:02.142Z,0
2023-01-28T02:44:18.442Z,0
2023-01-28T02:45:34.732Z,0
2023-01-28T02:46:51.027Z,0
2023-01-28T02:48:07.327Z,0
2023-01-28T02:49:22.637Z,0
2023-01-28T02:50:38.928Z,0
2023-01-28T02:51:55.216Z,0
2023-01-28T02:53:11.511Z,0
2023-01-28T02:54:27.803Z,0
2023-01-28T02:55:44.102Z,0
2023-01-28T02:56:59.411Z,0
2023-01-28T02:58:15.711Z,0
2023-01-28T02:59:31.994Z,0
2023-01-28T03:00:48.286Z,0
2023-01-28T03:02:04.585Z,0
2023-01-28T03:03:20.869Z,0
2023-01-28T03:04:37.166Z,0
2023-01-28T03:05:53.465Z,0
2023-01-28T03:07:09.761Z,0
2023-01-28T03:08:26.042Z,0
2023-01-28T03:09:42.349Z,0
2023-01-28T03:10:58.628Z,0
2023-01-28T03:12:14.927Z,0
2023-01-28T03:13:30.232Z,0
2023-01-28T03:14:46.531Z,0
2023-01-28T03:16:02.822Z,0
2023-01-28T03:17:19.116Z,0
2023-01-28T03:18:35.413Z,0
2023-01-28T03:19:51.712Z,0
2023-01-28T03:21:07.997Z,0
2023-01-28T03:22:24.296Z,0
2023-01-28T03:23:40.596Z,0
2023-01-28T03:24:56.882Z,0
2023-01-28T03:26:13.165Z,0
2023-01-28T03:27:29.465Z,0
2023-01-28T03:28:45.753Z,0
2023-01-28T03:30:01.074Z,0
2023-01-28T03:31:17.373Z,0
2023-01-28T03:32:33.659Z,0
2023-01-28T03:33:49.956Z,0
2023-01-28T03:35:06.245Z,0
2023-01-28T03:36:22.549Z,0
2023-01-28T03:37:38.843Z,0
2023-01-28T03:38:55.121Z,0
2023-01-28T03:41:27.717Z,0
2023-01-28T03:42:44.011Z,0
2023-01-28T03:44:00.300Z,0
2023-01-28T03:45:16.589Z,0
2023-01-28T03:46:31.901Z,0
2023-01-28T03:47:48.189Z,0
2023-01-28T03:49:04.489Z,0
2023-01-28T03:50:20.793Z,0
2023-01-28T03:51:37.074Z,0
2023-01-28T03:52:53.364Z,0
2023-01-28T03:54:09.674Z,0
2023-01-28T03:55:25.956Z,0
2023-01-28T03:56:42.261Z,0
2023-01-28T03:57:58.544Z,0
2023-01-28T03:59:14.838Z,0
2023-01-28T04:00:31.125Z,0
2023-01-28T04:01:47.428Z,0
2023-01-28T04:03:02.739Z,0
2023-01-28T04:04:19.031Z,0
2023-01-28T04:05:35.311Z,0
2023-01-28T04:06:51.000Z,0
2023-01-28T04:08:07.912Z,0
2023-01-28T04:09:24.193Z,0
2023-01-28T04:10:40.495Z,0
2023-01-28T04:11:56.787Z,0
2023-01-28T04:13:13.084Z,0
2023-01-28T04:14:29.372Z,0
2023-01-28T04:15:45.663Z,0
2023-01-28T04:17:01.955Z,0
2023-01-28T04:18:18.262Z,0
2023-01-28T04:19:33.558Z,0
2023-01-28T04:20:49.853Z,0
2023-01-28T04:22:06.152Z,0
2023-01-28T04:23:22.448Z,0
2023-01-28T04:24:38.730Z,0
2023-01-28T04:25:55.034Z,0
2023-01-28T04:27:11.329Z,0
2023-01-28T04:28:27.619Z,0
2023-01-28T04:29:43.914Z,0
2023-01-28T04:31:00.201Z,0
2023-01-28T04:32:16.503Z,0
2023-01-28T04:33:32.802Z,0
2023-01-28T04:34:49.085Z,0
2023-01-28T04:36:04.394Z,0
2023-01-28T04:37:20.684Z,0
2023-01-28T04:38:36.976Z,0
2023-01-28T04:39:53.274Z,0
2023-01-28T04:41:09.577Z,0
2023-01-28T04:42:25.871Z,0
2023-01-28T04:43:42.150Z,0
2023-01-28T04:44:58.454Z,0
2023-01-28T04:46:14.745Z,0
2023-01-28T04:47:31.046Z,0
2023-01-28T04:48:47.333Z,0
2023-01-28T04:50:03.621Z,0
2023-01-28T04:51:19.918Z,0
2023-01-28T04:52:35.231Z,0
2023-01-28T04:53:51.520Z,0
2023-01-28T04:55:07.810Z,0
2023-01-28T04:56:24.115Z,0
2023-01-28T04:57:40.411Z,0
2023-01-28T04:58:56.696Z,0
2023-01-28T05:00:12.991Z,0
2023-01-28T05:01:29.291Z,0
2023-01-28T05:02:45.573Z,0
2023-01-28T05:04:01.874Z,0
2023-01-28T05:05:18.167Z,0
2023-01-28T05:06:34.458Z,0
2023-01-28T05:07:50.747Z,0
2023-01-28T05:09:06.057Z,0
2023-01-28T05:10:22.353Z,0
2023-01-28T05:11:38.640Z,0
2023-01-28T05:12:54.937Z,0
2023-01-28T05:14:11.242Z,0
2023-01-28T05:15:27.524Z,0
2023-01-28T05:18:00.110Z,0
2023-01-28T05:19:16.414Z,0
2023-01-28T05:20:32.697Z,0
2023-01-28T05:21:48.992Z,0
2023-01-28T05:23:05.284Z,0
2023-01-28T05:24:21.580Z,0
2023-01-28T05:25:36.881Z,0
2023-01-28T05:26:53.186Z,0
2023-01-28T05:28:09.480Z,0
2023-01-28T05:29:25.778Z,0
2023-01-28T05:30:42.075Z,0
2023-01-28T05:31:58.350Z,0
2023-01-28T05:33:14.647Z,0
2023-01-28T05:34:30.949Z,0
2023-01-28T05:35:47.240Z,0
2023-01-28T05:37:03.542Z,0
2023-01-28T05:38:19.815Z,0
2023-01-28T05:39:36.113Z,0
2023-01-28T05:40:52.419Z,0
2023-01-28T05:42:07.727Z,0
2023-01-28T05:43:24.025Z,0
2023-01-28T05:44:40.319Z,0
2023-01-28T05:45:56.595Z,0
2023-01-28T05:47:12.899Z,0
2023-01-28T05:48:29.182Z,0
2023-01-28T05:49:45.481Z,0
2023-01-28T05:51:01.779Z,0
2023-01-28T05:52:18.080Z,0
2023-01-28T05:53:34.366Z,0
2023-01-28T05:54:50.667Z,0
2023-01-28T05:56:06.944Z,0
2023-01-28T05:57:23.242Z,0
2023-01-28T05:58:38.550Z,0
2023-01-28T05:59:54.841Z,0
2023-01-28T06:01:11.139Z,0
2023-01-28T06:02:27.437Z,0
2023-01-28T06:03:43.000Z,0
2023-01-28T06:05:00.017Z,0
2023-01-28T06:06:16.313Z,0
2023-01-28T06:07:32.605Z,0
2023-01-28T06:08:48.899Z,0
2023-01-28T06:10:05.190Z,0
2023-01-28T06:11:21.481Z,0
2023-01-28T06:12:37.784Z,0
2023-01-28T06:13:54.082Z,0
2023-01-28T06:15:09.381Z,0
2023-01-28T06:16:25.691Z,0
2023-01-28T06:17:41.970Z,0
2023-01-28T06:18:58.260Z,0
2023-01-28T06:20:14.554Z,0
2023-01-28T06:21:30.853Z,0
2023-01-28T06:22:47.143Z,0
2023-01-28T06:24:03.449Z,0
2023-01-28T06:25:19.733Z,0
2023-01-28T06:26:35.975Z,1
2023-01-28T06:27:52.218Z,1
2023-01-28T06:29:08.465Z,1
2023-01-28T06:30:24.770Z,0
2023-01-28T06:31:40.036Z,2
2023-01-28T06:32:56.259Z,1
2023-01-28T06:34:12.514Z,1
2023-01-28T06:36:44.987Z,1
2023-01-28T06:38:01.225Z,1
2023-01-28T06:39:17.458Z,2
2023-01-28T06:40:33.695Z,5
2023-01-28T06:41:49.943Z,3
2023-01-28T06:43:06.179Z,5
2023-01-28T06:44:22.426Z,4
2023-01-28T06:45:38.672Z,2
2023-01-28T06:46:54.912Z,7
2023-01-28T06:48:10.153Z,10
2023-01-28T06:49:26.399Z,8
2023-01-28T06:50:42.633Z,11
2023-01-28T06:51:58.878Z,15
2023-01-28T06:53:15.125Z,19
2023-01-28T06:54:31.348Z,19
2023-01-28T06:55:47.604Z,20
2023-01-28T06:57:03.824Z,28
2023-01-28T06:58:20.067Z,29
2023-01-28T06:59:36.320Z,30
2023-01-28T07:00:52.557Z,32
2023-01-28T07:02:08.792Z,31
2023-01-28T07:03:25.039Z,37
2023-01-28T07:04:40.280Z,43
2023-01-28T07:05:56.537Z,47
2023-01-28T07:07:12.756Z,47
2023-01-28T07:08:29.014Z,52
2023-01-28T07:09:45.254Z,51
2023-01-28T07:11:01.494Z,52
2023-01-28T07:12:16.736Z,59
2023-01-28T07:13:32.981Z,67
2023-01-28T07:14:49.229Z,67
2023-01-28T07:16:05.464Z,71
2023-01-28T07:17:21.701Z,74
2023-01-28T07:18:37.933Z,77
2023-01-28T07:19:54.174Z,75
2023-01-28T07:21:10.430Z,87
2023-01-28T07:22:26.661Z,91
2023-01-28T07:23:42.894Z,92
2023-01-28T07:24:59.153Z,91
2023-01-28T07:26:15.383Z,93
2023-01-28T07:27:31.625Z,106
2023-01-28T07:28:46.865Z,109
2023-01-28T07:30:03.120Z,112
2023-01-28T07:31:19.347Z,119
2023-01-28T07:32:35.583Z,125
2023-01-28T07:33:51.838Z,134
2023-01-28T07:35:08.069Z,137
2023-01-28T07:36:24.312Z,148
2023-01-28T07:37:40.562Z,152
2023-01-28T07:38:56.799Z,154
2023-01-28T07:40:13.024Z,162
2023-01-28T07:41:29.266Z,169
2023-01-28T07:42:45.512Z,180
2023-01-28T07:44:01.741Z,187
2023-01-28T07:45:17.012Z,189
2023-01-28T07:46:33.246Z,192
2023-01-28T07:47:49.496Z,200
2023-01-28T07:49:05.733Z,218
2023-01-28T07:50:21.975Z,223
2023-01-28T07:51:38.214Z,222
2023-01-28T07:52:54.442Z,206
2023-01-28T07:54:10.679Z,200
2023-01-28T07:55:26.915Z,186
2023-01-28T07:56:43.169Z,178
2023-01-28T07:57:59.399Z,174
2023-01-28T07:59:15.642Z,173
2023-01-28T08:00:31.887Z,174
2023-01-28T08:01:47.132Z,180
2023-01-28T08:03:03.379Z,190
2023-01-28T08:04:19.623Z,210
2023-01-28T08:05:35.847Z,218
2023-01-28T08:06:52.103Z,215
2023-01-28T08:08:08.344Z,208
2023-01-28T08:09:24.581Z,209
2023-01-28T08:11:57.061Z,231
2023-01-28T08:13:13.291Z,232
2023-01-28T08:14:29.544Z,232
2023-01-28T08:15:45.769Z,235
2023-01-28T08:17:02.018Z,234
2023-01-28T08:18:17.264Z,239
2023-01-28T08:19:33.516Z,242
2023-01-28T08:20:49.746Z,238
2023-01-28T08:22:05.993Z,249
2023-01-28T08:23:22.228Z,253
2023-01-28T08:24:38.470Z,258
2023-01-28T08:25:54.714Z,252
2023-01-28T08:27:10.000Z,244
2023-01-28T08:28:27.181Z,246
2023-01-28T08:29:43.418Z,252
2023-01-28T08:30:59.673Z,259
2023-01-28T08:32:15.912Z,261
2023-01-28T08:33:32.138Z,265
2023-01-28T08:34:47.405Z,278
2023-01-28T08:36:03.632Z,283
2023-01-28T08:37:19.879Z,300
2023-01-28T08:38:36.116Z,315
2023-01-28T08:39:52.370Z,339
2023-01-28T08:41:08.590Z,357
2023-01-28T08:42:24.833Z,375
2023-01-28T08:43:41.078Z,390
2023-01-28T08:44:57.315Z,392
2023-01-28T08:46:13.556Z,401
2023-01-28T08:47:29.795Z,412
2023-01-28T08:48:46.039Z,414
2023-01-28T08:50:02.283Z,405
2023-01-28T08:51:17.532Z,411
2023-01-28T08:52:33.762Z,430
2023-01-28T08:53:50.005Z,483
2023-01-28T08:55:06.261Z,513
2023-01-28T08:56:22.487Z,527
2023-01-28T08:57:38.729Z,537
2023-01-28T08:58:54.961Z,554
2023-01-28T09:00:11.215Z,526
2023-01-28T09:01:27.438Z,506
2023-01-28T09:02:43.685Z,501
2023-01-28T09:03:59.933Z,504
2023-01-28T09:05:16.158Z,518
2023-01-28T09:06:32.401Z,541
2023-01-28T09:07:47.666Z,542
2023-01-28T09:09:03.901Z,536
2023-01-28T09:10:20.141Z,537
2023-01-28T09:11:36.380Z,520
2023-01-28T09:12:52.615Z,512
2023-01-28T09:14:08.858Z,483
2023-01-28T09:15:25.090Z,462
2023-01-28T09:16:41.329Z,459
2023-01-28T09:17:57.575Z,460
2023-01-28T09:19:13.827Z,464
2023-01-28T09:20:30.058Z,480
2023-01-28T09:21:46.286Z,488
2023-01-28T09:23:02.538Z,497
2023-01-28T09:24:17.798Z,503
2023-01-28T09:25:34.026Z,485
2023-01-28T09:26:50.268Z,475
2023-01-28T09:28:06.513Z,503
2023-01-28T09:29:22.741Z,528
2023-01-28T09:30:38.991Z,521
2023-01-28T09:31:55.222Z,494
2023-01-28T09:33:11.459Z,511
2023-01-28T09:34:27.715Z,546
2023-01-28T09:35:43.956Z,537
2023-01-28T09:37:00.191Z,502
2023-01-28T09:38:16.420Z,487
2023-01-28T09:40:48.898Z,486
2023-01-28T09:42:04.165Z,515
2023-01-28T09:43:20.398Z,541
2023-01-28T09:44:36.638Z,565
2023-01-28T09:45:52.890Z,576
2023-01-28T09:47:09.128Z,637
2023-01-28T09:48:25.365Z,672
2023-01-28T09:49:41.604Z,730
2023-01-28T09:50:57.844Z,778
2023-01-28T09:52:14.074Z,824
2023-01-28T09:53:30.326Z,799
2023-01-28T09:54:46.555Z,774
2023-01-28T09:56:02.797Z,765
2023-01-28T09:57:19.026Z,748
2023-01-28T09:58:34.298Z,760
2023-01-28T09:59:50.522Z,746
2023-01-28T10:01:06.776Z,740
2023-01-28T10:02:23.011Z,701
2023-01-28T10:03:39.247Z,665
2023-01-28T10:04:55.483Z,661
2023-01-28T10:06:11.725Z,650
2023-01-28T10:07:27.956Z,630
2023-01-28T10:08:44.200Z,608
2023-01-28T10:10:00.434Z,608
2023-01-28T10:11:16.682Z,615
2023-01-28T10:12:32.919Z,609
2023-01-28T10:13:49.164Z,571
2023-01-28T10:15:04.429Z,530
2023-01-28T10:16:20.665Z,502
2023-01-28T10:17:36.903Z,499
2023-01-28T10:18:53.132Z,498
2023-01-28T10:20:09.380Z,482
2023-01-28T10:21:25.618Z,469
2023-01-28T10:22:41.862Z,471
2023-01-28T10:23:58.088Z,488
2023-01-28T10:25:14.326Z,517
2023-01-28T10:26:30.584Z,530
2023-01-28T10:27:46.817Z,542
2023-01-28T10:29:03.057Z,556
2023-01-28T10:30:19.289Z,589
2023-01-28T10:31:34.547Z,653
2023-01-28T10:32:50.797Z,703
2023-01-28T10:34:07.019Z,720
2023-01-28T10:35:23.261Z,711
2023-01-28T10:36:39.504Z,690
2023-01-28T10:37:55.747Z,671
2023-01-28T10:39:11.995Z,653
2023-01-28T10:40:28.234Z,640
2023-01-28T10:41:44.460Z,623
2023-01-28T10:43:00.710Z,615
2023-01-28T10:44:16.945Z,596
2023-01-28T10:45:33.185Z,610
2023-01-28T10:46:49.428Z,599
2023-01-28T10:48:04.671Z,594
2023-01-28T10:49:20.918Z,581
2023-01-28T10:50:37.157Z,603
2023-01-28T10:51:53.403Z,640
2023-01-28T10:53:09.647Z,642
2023-01-28T10:55:42.111Z,677
2023-01-28T10:56:58.000Z,683
2023-01-28T10:58:14.593Z,671
2023-01-28T10:59:30.827Z,656
2023-01-28T11:00:47.083Z,644
2023-01-28T11:02:03.317Z,644
2023-01-28T11:03:19.547Z,669
2023-01-28T11:04:34.812Z,669
2023-01-28T11:05:51.057Z,652
2023-01-28T11:07:07.280Z,650
2023-01-28T11:08:23.522Z,656
2023-01-28T11:09:39.765Z,673
2023-01-28T11:10:56.014Z,667
2023-01-28T11:12:12.237Z,655
2023-01-28T11:13:28.479Z,659
2023-01-28T11:14:44.728Z,660
2023-01-28T11:16:00.956Z,656
2023-01-28T11:17:17.195Z,639
2023-01-28T11:18:33.443Z,623
2023-01-28T11:19:49.679Z,625
2023-01-28T11:21:04.946Z,655
2023-01-28T11:22:21.176Z,655
2023-01-28T11:23:37.415Z,629
2023-01-28T11:24:53.664Z,650
2023-01-28T11:26:09.889Z,662
2023-01-28T11:27:25.152Z,655
2023-01-28T11:28:41.395Z,662
2023-01-28T11:29:57.644Z,674
2023-01-28T11:31:13.872Z,660
2023-01-28T11:32:30.116Z,645
2023-01-28T11:33:46.358Z,635
2023-01-28T11:35:02.596Z,622
2023-01-28T11:36:18.825Z,645
2023-01-28T11:37:35.068Z,650
2023-01-28T11:38:51.310Z,645
2023-01-28T11:40:07.550Z,633
2023-01-28T11:41:23.783Z,619
2023-01-28T11:42:40.032Z,620
2023-01-28T11:43:55.289Z,618
2023-01-28T11:45:11.522Z,603
2023-01-28T11:46:27.768Z,632
2023-01-28T11:47:44.004Z,640
2023-01-28T11:49:00.245Z,636
2023-01-28T11:50:16.483Z,625
2023-01-28T11:51:32.728Z,620
2023-01-28T11:52:48.958Z,638
2023-01-28T11:54:05.192Z,686
2023-01-28T11:55:21.439Z,776
2023-01-28T11:56:37.678Z,825
2023-01-28T11:57:53.909Z,824
2023-01-28T11:59:10.155Z,823
2023-01-28T12:00:25.421Z,817
2023-01-28T12:01:41.661Z,801
2023-01-28T12:02:57.883Z,756
2023-01-28T12:04:14.136Z,740
2023-01-28T12:05:30.368Z,712
2023-01-28T12:06:46.614Z,720
2023-01-28T12:08:02.858Z,709
2023-01-28T12:09:19.079Z,689
2023-01-28T12:10:35.337Z,648
2023-01-28T12:11:51.576Z,603
2023-01-28T12:13:07.808Z,584
2023-01-28T12:14:24.045Z,560
2023-01-28T12:15:40.297Z,545
2023-01-28T12:16:55.539Z,539
2023-01-28T12:18:11.789Z,544
2023-01-28T12:19:28.014Z,559
2023-01-28T12:20:44.261Z,566
2023-01-28T12:22:00.489Z,547
2023-01-28T12:23:16.742Z,543
2023-01-28T12:24:32.982Z,558
2023-01-28T12:25:49.209Z,548
2023-01-28T12:27:05.459Z,543
2023-01-28T12:28:21.701Z,529
2023-01-28T12:29:37.931Z,519
2023-01-28T12:30:54.171Z,507
2023-01-28T12:32:10.418Z,511
2023-01-28T12:33:25.666Z,515
2023-01-28T12:34:41.903Z,522
2023-01-28T12:35:58.155Z,537
2023-01-28T12:37:14.384Z,532
2023-01-28T12:38:30.626Z,532
2023-01-28T12:39:46.871Z,509
2023-01-28T12:41:03.113Z,474
2023-01-28T12:42:19.356Z,473
2023-01-28T12:43:35.582Z,480
2023-01-28T12:44:51.827Z,490
2023-01-28T12:46:08.067Z,499
2023-01-28T12:47:24.296Z,504
2023-01-28T12:48:40.555Z,531
2023-01-28T12:49:55.791Z,549
2023-01-28T12:51:12.033Z,574
2023-01-28T12:52:28.272Z,587
2023-01-28T12:53:44.512Z,554
2023-01-28T12:55:00.757Z,526
2023-01-28T12:56:16.988Z,517
2023-01-28T12:57:33.234Z,507
2023-01-28T12:58:49.470Z,491
2023-01-28T13:00:05.718Z,483
2023-01-28T13:01:21.956Z,480
2023-01-28T13:02:38.183Z,483
2023-01-28T13:03:54.432Z,469
2023-01-28T13:05:10.671Z,462
2023-01-28T13:06:25.920Z,490
2023-01-28T13:07:42.176Z,513
2023-01-28T13:08:58.404Z,490
2023-01-28T13:10:14.640Z,485
2023-01-28T13:11:30.885Z,522
2023-01-28T13:12:47.121Z,537
2023-01-28T13:14:03.363Z,524
2023-01-28T13:15:19.611Z,548
2023-01-28T13:16:35.854Z,575
2023-01-28T13:17:52.081Z,587
2023-01-28T13:19:08.319Z,614
2023-01-28T13:20:24.552Z,670
2023-01-28T13:21:40.793Z,681
2023-01-28T13:22:56.057Z,701
2023-01-28T13:24:12.304Z,708
2023-01-28T13:25:28.544Z,673
2023-01-28T13:26:44.773Z,606
2023-01-28T13:28:01.011Z,578
2023-01-28T13:29:17.260Z,587
2023-01-28T13:30:33.484Z,577
2023-01-28T13:31:49.723Z,553
2023-01-28T13:33:05.965Z,522
2023-01-28T13:34:22.206Z,506
2023-01-28T13:35:38.451Z,509
2023-01-28T13:36:54.695Z,511
2023-01-28T13:38:10.937Z,507
2023-01-28T13:39:26.174Z,523
2023-01-28T13:40:42.417Z,552
2023-01-28T13:41:58.674Z,566
2023-01-28T13:43:14.896Z,564
2023-01-28T13:44:31.137Z,556
2023-01-28T13:45:47.387Z,557
2023-01-28T13:47:03.628Z,543
2023-01-28T13:48:19.872Z,527
2023-01-28T13:49:36.108Z,507
2023-01-28T13:50:52.332Z,476
2023-01-28T13:52:08.582Z,454
2023-01-28T13:53:24.826Z,451
2023-01-28T13:54:41.050Z,463
2023-01-28T13:55:56.311Z,464
2023-01-28T13:57:12.547Z,479
2023-01-28T13:58:28.787Z,475
2023-01-28T13:59:45.031Z,484
2023-01-28T14:01:01.274Z,471
2023-01-28T14:02:17.505Z,455
2023-01-28T14:03:33.742Z,438
2023-01-28T14:04:49.998Z,418
2023-01-28T14:06:06.223Z,411
2023-01-28T14:07:22.461Z,412
2023-01-28T14:08:38.711Z,418
2023-01-28T14:09:54.939Z,416
2023-01-28T14:11:11.000Z,420
2023-01-28T14:13:42.686Z,424
2023-01-28T14:14:58.925Z,418
2023-01-28T14:16:15.173Z,416
2023-01-28T14:17:31.399Z,412
2023-01-28T14:18:47.638Z,411
2023-01-28T14:20:03.871Z,421
2023-01-28T14:21:20.114Z,418
2023-01-28T14:22:36.355Z,407
2023-01-28T14:23:52.590Z,388
2023-01-28T14:25:08.838Z,380
2023-01-28T14:26:25.077Z,365
2023-01-28T14:27:41.318Z,347
2023-01-28T14:28:56.583Z,342
2023-01-28T14:30:12.813Z,335
2023-01-28T14:31:29.052Z,324
2023-01-28T14:32:45.297Z,322
2023-01-28T14:34:01.536Z,325
2023-01-28T14:35:17.762Z,314
2023-01-28T14:36:34.002Z,308
2023-01-28T14:37:50.251Z,303
2023-01-28T14:39:06.494Z,298
2023-01-28T14:40:22.734Z,280
2023-01-28T14:41:38.958Z,266
2023-01-28T14:42:55.208Z,255
2023-01-28T14:44:11.452Z,248
2023-01-28T14:45:26.702Z,248
2023-01-28T14:46:42.933Z,250
2023-01-28T14:47:59.190Z,237
2023-01-28T14:49:15.412Z,223
2023-01-28T14:50:31.653Z,214
2023-01-28T14:51:47.894Z,209
2023-01-28T14:53:04.145Z,201
2023-01-28T14:54:20.381Z,197
2023-01-28T14:55:36.623Z,193
2023-01-28T14:56:52.854Z,192
2023-01-28T14:58:09.093Z,178
2023-01-28T14:59:25.346Z,176
2023-01-28T15:00:41.576Z,177
2023-01-28T15:01:56.826Z,176
2023-01-28T15:03:13.076Z,171
2023-01-28T15:04:29.304Z,161
2023-01-28T15:05:45.558Z,155
2023-01-28T15:07:01.796Z,156
2023-01-28T15:08:18.031Z,143
2023-01-28T15:09:34.259Z,136
2023-01-28T15:10:50.506Z,134
2023-01-28T15:12:06.753Z,132
2023-01-28T15:13:22.986Z,127
2023-01-28T15:14:39.225Z,126
2023-01-28T15:15:55.456Z,128
2023-01-28T15:17:11.702Z,131
2023-01-28T15:18:26.951Z,121
2023-01-28T15:19:43.190Z,116
2023-01-28T15:20:59.440Z,115
2023-01-28T15:22:15.677Z,109
2023-01-28T15:23:31.925Z,110
2023-01-28T15:24:48.158Z,108
2023-01-28T15:26:04.388Z,103
2023-01-28T15:27:20.628Z,99
2023-01-28T15:28:36.866Z,97
2023-01-28T15:29:53.113Z,95
2023-01-28T15:31:09.347Z,91
2023-01-28T15:32:25.599Z,79
2023-01-28T15:33:41.838Z,73
2023-01-28T15:34:57.099Z,70
2023-01-28T15:36:13.335Z,67
2023-01-28T15:37:29.568Z,61
2023-01-28T15:38:45.799Z,58
2023-01-28T15:40:02.050Z,56
2023-01-28T15:41:18.279Z,55
2023-01-28T15:42:33.548Z,53
2023-01-28T15:43:49.783Z,56
2023-01-28T15:45:06.021Z,48
2023-01-28T15:46:22.273Z,45
2023-01-28T15:47:38.510Z,40
2023-01-28T15:48:54.753Z,37
2023-01-28T15:50:10.979Z,36
2023-01-28T15:51:27.224Z,31
2023-01-28T15:52:43.456Z,22
2023-01-28T15:53:59.706Z,23
2023-01-28T15:55:15.946Z,19
2023-01-28T15:56:32.177Z,16
2023-01-28T15:57:48.423Z,15
2023-01-28T15:59:03.669Z,14
2023-01-28T16:00:19.924Z,10
2023-01-28T16:01:36.156Z,9
2023-01-28T16:02:52.395Z,8
2023-01-28T16:04:08.640Z,6
2023-01-28T16:05:24.885Z,6
2023-01-28T16:06:41.113Z,7
2023-01-28T16:07:57.351Z,6
2023-01-28T16:09:13.586Z,6
2023-01-28T16:10:29.837Z,7
2023-01-28T16:11:46.066Z,2
2023-01-28T16:13:02.311Z,2
2023-01-28T16:14:18.543Z,1
2023-01-28T16:15:33.789Z,2
2023-01-28T16:16:50.030Z,2
2023-01-28T16:18:06.275Z,1
2023-01-28T16:19:22.508Z,1
2023-01-28T16:20:38.746Z,1
2023-01-28T16:21:54.988Z,1
2023-01-28T16:23:11.292Z,0
2023-01-28T16:24:27.593Z,0
2023-01-28T16:25:43.871Z,0
2023-01-28T16:27:00.178Z,0
2023-01-28T16:28:16.469Z,0
2023-01-28T16:29:32.763Z,0
2023-01-28T16:30:49.047Z,0
2023-01-28T16:32:04.363Z,0
2023-01-28T16:33:20.647Z,0
2023-01-28T16:34:36.947Z,0
2023-01-28T16:35:53.238Z,0
2023-01-28T16:37:09.524Z,0
2023-01-28T16:38:25.822Z,0
2023-01-28T16:39:42.126Z,0
2023-01-28T16:40:58.423Z,0
2023-01-28T16:42:14.712Z,0
2023-01-28T16:43:30.997Z,0
2023-01-28T16:44:47.304Z,0
2023-01-28T16:46:03.588Z,0
2023-01-28T16:47:19.882Z,0
2023-01-28T16:48:35.189Z,0
2023-01-28T16:49:51.493Z,0
2023-01-28T16:51:07.773Z,0
2023-01-28T16:53:40.360Z,0
2023-01-28T16:54:56.663Z,0
2023-01-28T16:56:12.947Z,0
2023-01-28T16:57:29.242Z,0
2023-01-28T16:58:45.539Z,0
2023-01-28T17:00:01.841Z,0
2023-01-28T17:01:18.134Z,0
2023-01-28T17:02:34.422Z,0
2023-01-28T17:03:50.705Z,0
2023-01-28T17:05:06.012Z,0
2023-01-28T17:06:22.321Z,0
2023-01-28T17:07:38.610Z,0
2023-01-28T17:08:54.912Z,0
2023-01-28T17:10:11.201Z,0
2023-01-28T17:11:27.485Z,0
2023-01-28T17:12:43.772Z,0
2023-01-28T17:14:00.085Z,0
2023-01-28T17:15:16.370Z,0
2023-01-28T17:16:32.668Z,0
2023-01-28T17:17:48.963Z,0
2023-01-28T17:19:05.250Z,0
2023-01-28T17:20:21.534Z,0
2023-01-28T17:21:36.857Z,0
2023-01-28T17:22:53.137Z,0
2023-01-28T17:24:09.446Z,0
2023-01-28T17:25:25.731Z,0
2023-01-28T17:26:42.017Z,0
2023-01-28T17:27:58.325Z,0
2023-01-28T17:29:14.622Z,0
2023-01-28T17:30:30.908Z,0
2023-01-28T17:31:47.201Z,0
2023-01-28T17:33:03.497Z,0
2023-01-28T17:34:19.793Z,0
2023-01-28T17:35:36.092Z,0
2023-01-28T17:36:52.380Z,0
2023-01-28T17:38:07.688Z,0
2023-01-28T17:39:23.983Z,0
2023-01-28T17:40:40.265Z,0
2023-01-28T17:41:56.573Z,0
2023-01-28T17:43:12.852Z,0
2023-01-28T17:44:29.148Z,0
2023-01-28T17:45:45.455Z,0
2023-01-28T17:47:01.746Z,0
2023-01-28T17:48:18.026Z,0
2023-01-28T17:49:34.332Z,0
2023-01-28T17:50:50.632Z,0
2023-01-28T17:52:06.911Z,0
2023-01-28T17:54:39.499Z,0
2023-01-28T17:55:54.806Z,0
2023-01-28T17:57:11.101Z,0
2023-01-28T17:58:27.399Z,0
2023-01-28T17:59:43.687Z,0
2023-01-28T18:00:59.982Z,0
2023-01-28T18:02:16.282Z,0
2023-01-28T18:03:32.569Z,0
2023-01-28T18:04:48.865Z,0
2023-01-28T18:06:05.150Z,0
2023-01-28T18:07:21.463Z,0
2023-01-28T18:08:37.741Z,0
2023-01-28T18:09:54.038Z,0
2023-01-28T18:11:10.340Z,0
2023-01-28T18:12:25.649Z,0
2023-01-28T18:13:41.946Z,0
2023-01-28T18:14:58.236Z,0
2023-01-28T18:16:14.520Z,0
2023-01-28T18:17:30.816Z,0
2023-01-28T18:18:47.113Z,0
2023-01-28T18:20:03.408Z,0
2023-01-28T18:21:19.690Z,0